sensor_id;sensor_type;location;lat;lon;timestamp;pressure;altitude;pressure_sealevel;temperature;humidity
60371;BME280;48550;40.588;49.684;2023-03-14T00:01:52;102081.75;;;8.08;100.00
60371;BME280;48550;40.588;49.684;2023-03-14T00:04:18;102077.06;;;8.10;100.00
60371;BME280;48550;40.588;49.684;2023-03-14T00:06:43;102077.44;;;8.07;100.00
60371;BME280;48550;40.588;49.684;2023-03-14T00:09:10;102082.41;;;8.10;100.00
60371;BME280;48550;40.588;49.684;2023-03-14T00:11:35;102067.47;;;8.01;100.00
60371;BME280;48550;40.588;49.684;2023-03-14T00:14:01;102087.19;;;8.00;100.00
60371;BME280;48550;40.588;49.684;2023-03-14T00:16:28;102056.78;;;8.01;100.00
60371;BME280;48550;40.588;49.684;2023-03-14T00:18:53;102082.84;;;7.98;100.00
60371;BME280;48550;40.588;49.684;2023-03-14T00:21:19;102081.56;;;7.94;100.00
60371;BME280;48550;40.588;49.684;2023-03-14T00:23:45;102089.59;;;7.94;100.00
60371;BME280;48550;40.588;49.684;2023-03-14T00:26:15;102086.25;;;7.92;100.00
60371;BME280;48550;40.588;49.684;2023-03-14T00:28:42;102075.19;;;7.95;100.00
60371;BME280;48550;40.588;49.684;2023-03-14T00:31:11;102088.28;;;7.90;100.00
60371;BME280;48550;40.588;49.684;2023-03-14T00:33:37;102094.00;;;7.87;100.00
60371;BME280;48550;40.588;49.684;2023-03-14T00:36:05;102108.09;;;7.81;100.00
60371;BME280;48550;40.588;49.684;2023-03-14T00:38:34;102083.84;;;7.83;100.00
60371;BME280;48550;40.588;49.684;2023-03-14T00:41:08;102087.25;;;7.77;100.00
60371;BME280;48550;40.588;49.684;2023-03-14T00:43:34;102079.78;;;7.72;100.00
60371;BME280;48550;40.588;49.684;2023-03-14T00:46:00;102090.34;;;7.65;100.00
60371;BME280;48550;40.588;49.684;2023-03-14T00:48:26;102094.13;;;7.71;100.00
60371;BME280;48550;40.588;49.684;2023-03-14T00:50:52;102102.34;;;7.70;100.00
60371;BME280;48550;40.588;49.684;2023-03-14T00:53:18;102116.06;;;7.67;100.00
60371;BME280;48550;40.588;49.684;2023-03-14T00:55:44;102132.63;;;7.62;100.00
60371;BME280;48550;40.588;49.684;2023-03-14T00:58:11;102144.97;;;7.63;100.00
60371;BME280;48550;40.588;49.684;2023-03-14T01:00:37;102148.47;;;7.63;100.00
60371;BME280;48550;40.588;49.684;2023-03-14T01:03:04;102156.03;;;7.60;100.00
60371;BME280;48550;40.588;49.684;2023-03-14T01:05:30;102168.38;;;7.61;100.00
60371;BME280;48550;40.588;49.684;2023-03-14T01:07:56;102174.38;;;7.63;100.00
60371;BME280;48550;40.588;49.684;2023-03-14T01:10:21;102178.72;;;7.64;100.00
60371;BME280;48550;40.588;49.684;2023-03-14T01:12:47;102186.25;;;7.60;100.00
60371;BME280;48550;40.588;49.684;2023-03-14T01:15:13;102163.56;;;7.56;100.00
60371;BME280;48550;40.588;49.684;2023-03-14T01:17:39;102199.13;;;7.57;100.00
60371;BME280;48550;40.588;49.684;2023-03-14T01:20:07;102184.09;;;7.56;100.00
60371;BME280;48550;40.588;49.684;2023-03-14T01:22:37;102212.84;;;7.54;100.00
60371;BME280;48550;40.588;49.684;2023-03-14T01:25:06;102193.47;;;7.52;100.00
60371;BME280;48550;40.588;49.684;2023-03-14T01:27:33;102204.53;;;7.49;100.00
60371;BME280;48550;40.588;49.684;2023-03-14T01:29:58;102206.19;;;7.50;100.00
60371;BME280;48550;40.588;49.684;2023-03-14T01:32:24;102219.25;;;7.45;100.00
60371;BME280;48550;40.588;49.684;2023-03-14T01:34:51;102217.41;;;7.45;100.00
60371;BME280;48550;40.588;49.684;2023-03-14T01:37:17;102212.38;;;7.42;100.00
60371;BME280;48550;40.588;49.684;2023-03-14T01:39:43;102206.88;;;7.44;100.00
60371;BME280;48550;40.588;49.684;2023-03-14T01:42:09;102215.22;;;7.41;100.00
60371;BME280;48550;40.588;49.684;2023-03-14T01:44:54;102192.19;;;7.40;100.00
60371;BME280;48550;40.588;49.684;2023-03-14T01:47:20;102207.56;;;7.38;100.00
60371;BME280;48550;40.588;49.684;2023-03-14T01:49:53;102220.91;;;7.38;100.00
60371;BME280;48550;40.588;49.684;2023-03-14T01:52:29;102206.06;;;7.35;100.00
60371;BME280;48550;40.588;49.684;2023-03-14T01:55:06;102211.06;;;7.38;100.00
60371;BME280;48550;40.588;49.684;2023-03-14T01:57:37;102201.75;;;7.34;100.00
60371;BME280;48550;40.588;49.684;2023-03-14T02:00:12;102201.91;;;7.32;100.00
60371;BME280;48550;40.588;49.684;2023-03-14T02:02:47;102200.59;;;7.28;100.00
60371;BME280;48550;40.588;49.684;2023-03-14T02:05:17;102205.75;;;7.30;100.00
60371;BME280;48550;40.588;49.684;2023-03-14T02:07:50;102210.94;;;7.31;100.00
60371;BME280;48550;40.588;49.684;2023-03-14T02:10:18;102227.31;;;7.28;100.00
60371;BME280;48550;40.588;49.684;2023-03-14T02:12:46;102215.78;;;7.28;100.00
60371;BME280;48550;40.588;49.684;2023-03-14T02:15:12;102213.13;;;7.28;100.00
60371;BME280;48550;40.588;49.684;2023-03-14T02:17:41;102227.47;;;7.27;100.00
60371;BME280;48550;40.588;49.684;2023-03-14T02:22:52;102239.81;;;7.28;100.00
60371;BME280;48550;40.588;49.684;2023-03-14T02:25:24;102239.16;;;7.26;100.00
60371;BME280;48550;40.588;49.684;2023-03-14T02:27:53;102241.66;;;7.27;100.00
60371;BME280;48550;40.588;49.684;2023-03-14T02:30:21;102242.66;;;7.26;100.00
60371;BME280;48550;40.588;49.684;2023-03-14T02:32:51;102249.50;;;7.29;100.00
60371;BME280;48550;40.588;49.684;2023-03-14T02:35:22;102260.84;;;7.31;100.00
60371;BME280;48550;40.588;49.684;2023-03-14T02:37:53;102259.00;;;7.31;100.00
60371;BME280;48550;40.588;49.684;2023-03-14T02:40:20;102270.88;;;7.29;100.00
60371;BME280;48550;40.588;49.684;2023-03-14T02:42:46;102271.53;;;7.31;100.00
60371;BME280;48550;40.588;49.684;2023-03-14T02:47:45;102283.69;;;7.33;100.00
60371;BME280;48550;40.588;49.684;2023-03-14T02:50:15;102279.84;;;7.36;100.00
60371;BME280;48550;40.588;49.684;2023-03-14T02:52:43;102288.03;;;7.34;100.00
60371;BME280;48550;40.588;49.684;2023-03-14T02:55:09;102288.03;;;7.34;100.00
60371;BME280;48550;40.588;49.684;2023-03-14T02:57:34;102293.03;;;7.38;100.00
60371;BME280;48550;40.588;49.684;2023-03-14T03:00:02;102293.88;;;7.38;100.00
60371;BME280;48550;40.588;49.684;2023-03-14T03:02:30;102286.53;;;7.32;100.00
60371;BME280;48550;40.588;49.684;2023-03-14T03:04:55;102300.38;;;7.36;100.00
60371;BME280;48550;40.588;49.684;2023-03-14T03:07:21;102310.72;;;7.39;100.00
60371;BME280;48550;40.588;49.684;2023-03-14T03:09:47;102318.56;;;7.40;100.00
60371;BME280;48550;40.588;49.684;2023-03-14T03:12:13;102306.69;;;7.43;100.00
60371;BME280;48550;40.588;49.684;2023-03-14T03:14:38;102328.41;;;7.48;100.00
60371;BME280;48550;40.588;49.684;2023-03-14T03:17:04;102332.44;;;7.44;100.00
60371;BME280;48550;40.588;49.684;2023-03-14T03:19:31;102329.44;;;7.47;100.00
60371;BME280;48550;40.588;49.684;2023-03-14T03:21:57;102349.97;;;7.46;100.00
60371;BME280;48550;40.588;49.684;2023-03-14T03:24:24;102335.78;;;7.46;100.00
60371;BME280;48550;40.588;49.684;2023-03-14T03:26:49;102350.78;;;7.47;100.00
60371;BME280;48550;40.588;49.684;2023-03-14T03:29:15;102361.63;;;7.53;100.00
60371;BME280;48550;40.588;49.684;2023-03-14T03:31:41;102361.44;;;7.55;100.00
60371;BME280;48550;40.588;49.684;2023-03-14T03:34:06;102357.09;;;7.62;100.00
60371;BME280;48550;40.588;49.684;2023-03-14T03:36:32;102341.38;;;7.67;100.00
60371;BME280;48550;40.588;49.684;2023-03-14T03:38:58;102373.13;;;7.62;100.00
60371;BME280;48550;40.588;49.684;2023-03-14T03:41:24;102392.78;;;7.69;100.00
60371;BME280;48550;40.588;49.684;2023-03-14T03:43:49;102381.25;;;7.77;100.00
60371;BME280;48550;40.588;49.684;2023-03-14T03:46:15;102384.22;;;7.82;100.00
60371;BME280;48550;40.588;49.684;2023-03-14T03:48:41;102392.63;;;7.71;100.00
60371;BME280;48550;40.588;49.684;2023-03-14T03:51:07;102394.84;;;7.59;100.00
60371;BME280;48550;40.588;49.684;2023-03-14T03:53:36;102402.53;;;7.54;100.00
60371;BME280;48550;40.588;49.684;2023-03-14T03:56:02;102399.84;;;7.62;100.00
60371;BME280;48550;40.588;49.684;2023-03-14T03:58:27;102419.56;;;7.61;100.00
60371;BME280;48550;40.588;49.684;2023-03-14T04:00:54;102418.72;;;7.60;100.00
60371;BME280;48550;40.588;49.684;2023-03-14T04:03:19;102423.22;;;7.60;100.00
60371;BME280;48550;40.588;49.684;2023-03-14T04:05:45;102418.38;;;7.63;100.00
60371;BME280;48550;40.588;49.684;2023-03-14T04:08:11;102435.38;;;7.71;100.00
60371;BME280;48550;40.588;49.684;2023-03-14T04:10:37;102439.22;;;7.76;100.00
60371;BME280;48550;40.588;49.684;2023-03-14T04:13:02;102440.88;;;7.77;100.00
60371;BME280;48550;40.588;49.684;2023-03-14T04:15:28;102431.31;;;7.91;100.00
60371;BME280;48550;40.588;49.684;2023-03-14T04:17:58;102455.72;;;7.80;100.00
60371;BME280;48550;40.588;49.684;2023-03-14T04:20:24;102460.91;;;7.81;100.00
60371;BME280;48550;40.588;49.684;2023-03-14T04:22:49;102454.13;;;8.10;100.00
60371;BME280;48550;40.588;49.684;2023-03-14T04:25:15;102479.72;;;8.04;100.00
60371;BME280;48550;40.588;49.684;2023-03-14T04:27:42;102454.81;;;8.04;100.00
60371;BME280;48550;40.588;49.684;2023-03-14T04:30:08;102459.84;;;7.98;100.00
60371;BME280;48550;40.588;49.684;2023-03-14T04:32:34;102462.28;;;8.16;100.00
60371;BME280;48550;40.588;49.684;2023-03-14T04:35:00;102471.69;;;8.04;100.00
60371;BME280;48550;40.588;49.684;2023-03-14T04:37:25;102457.06;;;7.84;100.00
60371;BME280;48550;40.588;49.684;2023-03-14T04:39:51;102473.25;;;7.90;100.00
60371;BME280;48550;40.588;49.684;2023-03-14T04:42:17;102472.53;;;8.05;100.00
60371;BME280;48550;40.588;49.684;2023-03-14T04:44:42;102481.19;;;8.07;100.00
60371;BME280;48550;40.588;49.684;2023-03-14T04:47:08;102478.19;;;8.10;100.00
60371;BME280;48550;40.588;49.684;2023-03-14T04:49:34;102481.69;;;8.10;100.00
60371;BME280;48550;40.588;49.684;2023-03-14T04:52:00;102484.72;;;8.07;100.00
60371;BME280;48550;40.588;49.684;2023-03-14T04:54:25;102491.72;;;8.08;100.00
60371;BME280;48550;40.588;49.684;2023-03-14T04:56:51;102486.03;;;8.11;100.00
60371;BME280;48550;40.588;49.684;2023-03-14T04:59:17;102497.72;;;8.10;100.00
60371;BME280;48550;40.588;49.684;2023-03-14T05:01:42;102495.56;;;8.14;100.00
60371;BME280;48550;40.588;49.684;2023-03-14T05:04:08;102493.53;;;8.16;100.00
60371;BME280;48550;40.588;49.684;2023-03-14T05:06:34;102496.22;;;8.24;100.00
60371;BME280;48550;40.588;49.684;2023-03-14T05:09:00;102498.72;;;8.25;100.00
60371;BME280;48550;40.588;49.684;2023-03-14T05:11:26;102505.25;;;8.62;100.00
60371;BME280;48550;40.588;49.684;2023-03-14T05:13:51;102504.75;;;8.58;100.00
60371;BME280;48550;40.588;49.684;2023-03-14T05:16:17;102498.41;;;8.59;100.00
60371;BME280;48550;40.588;49.684;2023-03-14T05:18:43;102512.19;;;9.25;100.00
60371;BME280;48550;40.588;49.684;2023-03-14T05:21:08;102502.00;;;9.20;100.00
60371;BME280;48550;40.588;49.684;2023-03-14T05:23:34;102509.16;;;8.51;100.00
60371;BME280;48550;40.588;49.684;2023-03-14T05:26:00;102511.28;;;8.87;100.00
60371;BME280;48550;40.588;49.684;2023-03-14T05:28:25;102518.34;;;8.80;100.00
60371;BME280;48550;40.588;49.684;2023-03-14T05:30:52;102524.53;;;8.80;100.00
60371;BME280;48550;40.588;49.684;2023-03-14T05:33:17;102511.56;;;9.38;100.00
60371;BME280;48550;40.588;49.684;2023-03-14T05:35:43;102527.13;;;10.39;100.00
60371;BME280;48550;40.588;49.684;2023-03-14T05:38:09;102516.25;;;10.98;100.00
60371;BME280;48550;40.588;49.684;2023-03-14T05:40:34;102515.00;;;11.36;100.00
60371;BME280;48550;40.588;49.684;2023-03-14T05:43:00;102523.56;;;11.04;100.00
60371;BME280;48550;40.588;49.684;2023-03-14T05:45:26;102539.69;;;11.74;94.12
60371;BME280;48550;40.588;49.684;2023-03-14T05:47:52;102536.06;;;11.33;98.23
60371;BME280;48550;40.588;49.684;2023-03-14T05:50:17;102542.81;;;11.07;97.47
60371;BME280;48550;40.588;49.684;2023-03-14T05:52:43;102537.00;;;11.04;98.57
60371;BME280;48550;40.588;49.684;2023-03-14T05:55:09;102519.66;;;11.06;100.00
60371;BME280;48550;40.588;49.684;2023-03-14T05:57:35;102547.88;;;10.96;100.00
60371;BME280;48550;40.588;49.684;2023-03-14T06:00:00;102540.91;;;10.65;100.00
60371;BME280;48550;40.588;49.684;2023-03-14T06:02:26;102539.31;;;10.71;100.00
60371;BME280;48550;40.588;49.684;2023-03-14T06:04:52;102546.03;;;10.31;100.00
60371;BME280;48550;40.588;49.684;2023-03-14T06:07:18;102530.38;;;10.49;100.00
60371;BME280;48550;40.588;49.684;2023-03-14T06:09:43;102544.06;;;10.39;100.00
60371;BME280;48550;40.588;49.684;2023-03-14T06:12:09;102546.50;;;10.49;100.00
60371;BME280;48550;40.588;49.684;2023-03-14T06:14:35;102536.91;;;10.76;100.00
60371;BME280;48550;40.588;49.684;2023-03-14T06:17:00;102552.75;;;10.12;100.00
60371;BME280;48550;40.588;49.684;2023-03-14T06:19:26;102558.34;;;10.25;100.00
60371;BME280;48550;40.588;49.684;2023-03-14T06:21:52;102548.66;;;10.75;100.00
60371;BME280;48550;40.588;49.684;2023-03-14T06:24:17;102558.91;;;10.86;100.00
60371;BME280;48550;40.588;49.684;2023-03-14T06:26:43;102562.44;;;11.23;99.22
60371;BME280;48550;40.588;49.684;2023-03-14T06:29:10;102547.25;;;11.15;100.00
60371;BME280;48550;40.588;49.684;2023-03-14T06:31:36;102567.91;;;11.14;98.35
60371;BME280;48550;40.588;49.684;2023-03-14T06:34:01;102553.91;;;11.19;93.47
60371;BME280;48550;40.588;49.684;2023-03-14T06:36:27;102558.03;;;11.00;95.64
60371;BME280;48550;40.588;49.684;2023-03-14T06:38:53;102561.66;;;11.29;96.71
60371;BME280;48550;40.588;49.684;2023-03-14T06:41:19;102551.97;;;12.05;93.27
60371;BME280;48550;40.588;49.684;2023-03-14T06:43:44;102555.59;;;11.69;90.41
60371;BME280;48550;40.588;49.684;2023-03-14T06:46:10;102557.88;;;11.23;99.49
60371;BME280;48550;40.588;49.684;2023-03-14T06:48:36;102552.78;;;11.13;98.58
60371;BME280;48550;40.588;49.684;2023-03-14T06:51:01;102546.91;;;11.46;93.84
60371;BME280;48550;40.588;49.684;2023-03-14T06:53:27;102551.91;;;11.49;95.37
60371;BME280;48550;40.588;49.684;2023-03-14T06:55:53;102562.56;;;11.85;94.65
60371;BME280;48550;40.588;49.684;2023-03-14T06:58:19;102549.50;;;11.82;87.61
60371;BME280;48550;40.588;49.684;2023-03-14T07:00:44;102555.38;;;12.20;88.23
60371;BME280;48550;40.588;49.684;2023-03-14T07:03:12;102561.22;;;11.96;90.94
60371;BME280;48550;40.588;49.684;2023-03-14T07:05:38;102567.91;;;11.14;97.33
60371;BME280;48550;40.588;49.684;2023-03-14T07:08:06;102545.63;;;10.99;100.00
60371;BME280;48550;40.588;49.684;2023-03-14T07:10:32;102559.44;;;11.60;95.42
60371;BME280;48550;40.588;49.684;2023-03-14T07:12:58;102566.81;;;10.73;96.63
60371;BME280;48550;40.588;49.684;2023-03-14T07:15:23;102567.09;;;10.04;100.00
60371;BME280;48550;40.588;49.684;2023-03-14T07:17:49;102560.00;;;10.26;100.00
60371;BME280;48550;40.588;49.684;2023-03-14T07:20:15;102563.34;;;10.58;100.00
60371;BME280;48550;40.588;49.684;2023-03-14T07:22:41;102551.09;;;10.11;100.00
60371;BME280;48550;40.588;49.684;2023-03-14T07:25:08;102538.28;;;9.69;100.00
60371;BME280;48550;40.588;49.684;2023-03-14T07:27:35;102574.94;;;9.31;100.00
60371;BME280;48550;40.588;49.684;2023-03-14T07:30:00;102558.16;;;9.37;100.00
60371;BME280;48550;40.588;49.684;2023-03-14T07:32:26;102549.09;;;9.38;100.00
60371;BME280;48550;40.588;49.684;2023-03-14T07:34:52;102572.09;;;9.32;100.00
60371;BME280;48550;40.588;49.684;2023-03-14T07:37:17;102564.41;;;9.06;100.00
60371;BME280;48550;40.588;49.684;2023-03-14T07:39:43;102580.59;;;8.82;100.00
60371;BME280;48550;40.588;49.684;2023-03-14T07:42:09;102566.44;;;8.65;100.00
60371;BME280;48550;40.588;49.684;2023-03-14T07:44:36;102556.94;;;8.63;100.00
60371;BME280;48550;40.588;49.684;2023-03-14T07:47:02;102559.38;;;8.41;100.00
60371;BME280;48550;40.588;49.684;2023-03-14T07:49:27;102563.34;;;8.53;100.00
60371;BME280;48550;40.588;49.684;2023-03-14T07:51:53;102569.72;;;8.44;100.00
60371;BME280;48550;40.588;49.684;2023-03-14T07:54:19;102556.84;;;8.48;100.00
60371;BME280;48550;40.588;49.684;2023-03-14T07:56:45;102571.03;;;8.48;100.00
60371;BME280;48550;40.588;49.684;2023-03-14T07:59:10;102540.50;;;8.26;100.00
60371;BME280;48550;40.588;49.684;2023-03-14T08:01:37;102559.06;;;8.36;100.00
60371;BME280;48550;40.588;49.684;2023-03-14T08:04:03;102559.53;;;8.40;100.00
60371;BME280;48550;40.588;49.684;2023-03-14T08:06:29;102588.50;;;8.12;100.00
60371;BME280;48550;40.588;49.684;2023-03-14T08:08:55;102572.72;;;8.49;100.00
60371;BME280;48550;40.588;49.684;2023-03-14T08:11:21;102557.22;;;8.37;100.00
60371;BME280;48550;40.588;49.684;2023-03-14T08:13:46;102578.03;;;8.57;100.00
60371;BME280;48550;40.588;49.684;2023-03-14T08:16:18;102574.41;;;8.42;100.00
60371;BME280;48550;40.588;49.684;2023-03-14T08:18:44;102579.34;;;8.62;100.00
60371;BME280;48550;40.588;49.684;2023-03-14T08:21:10;102578.47;;;8.69;100.00
60371;BME280;48550;40.588;49.684;2023-03-14T08:23:36;102579.00;;;8.65;100.00
60371;BME280;48550;40.588;49.684;2023-03-14T08:26:02;102592.41;;;8.56;100.00
60371;BME280;48550;40.588;49.684;2023-03-14T08:28:28;102577.41;;;8.47;100.00
60371;BME280;48550;40.588;49.684;2023-03-14T08:30:57;102565.69;;;8.48;100.00
60371;BME280;48550;40.588;49.684;2023-03-14T08:33:23;102592.28;;;8.50;100.00
60371;BME280;48550;40.588;49.684;2023-03-14T08:35:52;102569.69;;;8.52;100.00
60371;BME280;48550;40.588;49.684;2023-03-14T08:38:18;102572.72;;;8.49;100.00
60371;BME280;48550;40.588;49.684;2023-03-14T08:40:44;102589.56;;;8.58;100.00
60371;BME280;48550;40.588;49.684;2023-03-14T08:43:09;102573.94;;;8.31;100.00
60371;BME280;48550;40.588;49.684;2023-03-14T08:45:35;102565.41;;;8.27;100.00
60371;BME280;48550;40.588;49.684;2023-03-14T08:48:00;102578.09;;;8.41;100.00
60371;BME280;48550;40.588;49.684;2023-03-14T08:50:26;102573.50;;;8.58;100.00
60371;BME280;48550;40.588;49.684;2023-03-14T08:52:52;102560.91;;;8.27;100.00
60371;BME280;48550;40.588;49.684;2023-03-14T08:55:18;102550.84;;;8.38;100.00
60371;BME280;48550;40.588;49.684;2023-03-14T08:57:43;102561.09;;;8.65;100.00
60371;BME280;48550;40.588;49.684;2023-03-14T09:00:09;102541.88;;;8.62;100.00
60371;BME280;48550;40.588;49.684;2023-03-14T09:02:41;102548.84;;;8.40;100.00
60371;BME280;48550;40.588;49.684;2023-03-14T09:05:07;102554.72;;;8.35;100.00
60371;BME280;48550;40.588;49.684;2023-03-14T09:07:33;102557.31;;;8.51;100.00
60371;BME280;48550;40.588;49.684;2023-03-14T09:09:59;102546.66;;;8.43;100.00
60371;BME280;48550;40.588;49.684;2023-03-14T09:12:25;102545.47;;;8.46;100.00
60371;BME280;48550;40.588;49.684;2023-03-14T09:14:50;102560.72;;;8.37;100.00
60371;BME280;48550;40.588;49.684;2023-03-14T09:17:16;102552.81;;;8.52;100.00
60371;BME280;48550;40.588;49.684;2023-03-14T09:19:42;102537.72;;;8.59;100.00
60371;BME280;48550;40.588;49.684;2023-03-14T09:22:07;102545.78;;;8.51;100.00
60371;BME280;48550;40.588;49.684;2023-03-14T09:24:33;102548.75;;;8.56;100.00
60371;BME280;48550;40.588;49.684;2023-03-14T09:26:59;102553.00;;;8.42;100.00
60371;BME280;48550;40.588;49.684;2023-03-14T09:29:24;102552.06;;;8.66;100.00
60371;BME280;48550;40.588;49.684;2023-03-14T09:31:50;102546.03;;;8.64;100.00
60371;BME280;48550;40.588;49.684;2023-03-14T09:34:16;102551.41;;;8.64;100.00
60371;BME280;48550;40.588;49.684;2023-03-14T09:36:42;102556.84;;;8.79;100.00
60371;BME280;48550;40.588;49.684;2023-03-14T09:39:10;102535.72;;;8.84;100.00
60371;BME280;48550;40.588;49.684;2023-03-14T09:41:41;102533.53;;;8.87;100.00
60371;BME280;48550;40.588;49.684;2023-03-14T09:45:12;102536.88;;;8.89;100.00
60371;BME280;48550;40.588;49.684;2023-03-14T09:47:07;102527.44;;;8.71;100.00
60371;BME280;48550;40.588;49.684;2023-03-14T09:49:38;102522.47;;;8.90;100.00
60371;BME280;48550;40.588;49.684;2023-03-14T09:52:14;102511.94;;;8.89;100.00
60371;BME280;48550;40.588;49.684;2023-03-14T09:54:54;102500.41;;;8.57;100.00
60371;BME280;48550;40.588;49.684;2023-03-14T09:57:25;102513.78;;;8.88;100.00
60371;BME280;48550;40.588;49.684;2023-03-14T09:59:54;102508.56;;;8.64;100.00
60371;BME280;48550;40.588;49.684;2023-03-14T10:02:24;102520.38;;;8.47;100.00
60371;BME280;48550;40.588;49.684;2023-03-14T10:04:52;102512.09;;;8.65;100.00
60371;BME280;48550;40.588;49.684;2023-03-14T10:07:25;102509.00;;;8.76;100.00
60371;BME280;48550;40.588;49.684;2023-03-14T10:09:53;102512.56;;;8.37;100.00
60371;BME280;48550;40.588;49.684;2023-03-14T10:12:19;102497.53;;;8.36;100.00
60371;BME280;48550;40.588;49.684;2023-03-14T10:14:54;102498.09;;;8.54;100.00
60371;BME280;48550;40.588;49.684;2023-03-14T10:17:20;102492.47;;;8.41;100.00
60371;BME280;48550;40.588;49.684;2023-03-14T10:19:59;102488.19;;;8.16;100.00
60371;BME280;48550;40.588;49.684;2023-03-14T10:22:31;102487.97;;;7.86;100.00
60371;BME280;48550;40.588;49.684;2023-03-14T10:25:05;102487.53;;;8.22;100.00
60371;BME280;48550;40.588;49.684;2023-03-14T10:27:35;102486.22;;;8.10;100.00
60371;BME280;48550;40.588;49.684;2023-03-14T10:30:07;102488.41;;;8.06;100.00
60371;BME280;48550;40.588;49.684;2023-03-14T10:32:38;102480.84;;;8.18;100.00
60371;BME280;48550;40.588;49.684;2023-03-14T10:38:00;102495.06;;;8.57;100.00
60371;BME280;48550;40.588;49.684;2023-03-14T10:40:40;102479.06;;;8.49;100.00
60371;BME280;48550;40.588;49.684;2023-03-14T10:43:13;102488.88;;;8.57;100.00
60371;BME280;48550;40.588;49.684;2023-03-14T10:45:44;102487.53;;;8.22;100.00
60371;BME280;48550;40.588;49.684;2023-03-14T10:51:07;102505.41;;;8.13;100.00
60371;BME280;48550;40.588;49.684;2023-03-14T10:54:09;102492.75;;;7.99;100.00
60371;BME280;48550;40.588;49.684;2023-03-14T10:56:35;102482.97;;;8.39;100.00
60371;BME280;48550;40.588;49.684;2023-03-14T10:59:03;102489.75;;;8.49;100.00
60371;BME280;48550;40.588;49.684;2023-03-14T11:01:53;102478.25;;;8.41;100.00
60371;BME280;48550;40.588;49.684;2023-03-14T11:04:57;102480.28;;;8.39;100.00
60371;BME280;48550;40.588;49.684;2023-03-14T11:07:40;102486.78;;;8.44;100.00
60371;BME280;48550;40.588;49.684;2023-03-14T11:13:01;102479.72;;;8.51;100.00
60371;BME280;48550;40.588;49.684;2023-03-14T11:27:13;102481.47;;;8.28;100.00
60371;BME280;48550;40.588;49.684;2023-03-14T11:29:51;102479.16;;;8.17;100.00
60371;BME280;48550;40.588;49.684;2023-03-14T11:34:58;102485.47;;;8.32;100.00
60371;BME280;48550;40.588;49.684;2023-03-14T11:37:33;102483.66;;;8.24;100.00
60371;BME280;48550;40.588;49.684;2023-03-14T11:40:14;102502.13;;;7.95;100.00
60371;BME280;48550;40.588;49.684;2023-03-14T11:42:43;102487.75;;;7.96;100.00
60371;BME280;48550;40.588;49.684;2023-03-14T11:45:17;102495.94;;;7.94;100.00
60371;BME280;48550;40.588;49.684;2023-03-14T11:47:48;102500.75;;;8.07;100.00
60371;BME280;48550;40.588;49.684;2023-03-14T11:50:25;102494.38;;;8.16;100.00
60371;BME280;48550;40.588;49.684;2023-03-14T11:53:01;102493.31;;;7.86;100.00
60371;BME280;48550;40.588;49.684;2023-03-14T11:55:32;102507.00;;;7.83;100.00
60371;BME280;48550;40.588;49.684;2023-03-14T11:58:19;102487.16;;;7.78;100.00
60371;BME280;48550;40.588;49.684;2023-03-14T12:00:48;102487.59;;;7.97;100.00
60371;BME280;48550;40.588;49.684;2023-03-14T12:03:39;102482.09;;;7.91;100.00
60371;BME280;48550;40.588;49.684;2023-03-14T12:06:35;102485.09;;;7.96;100.00
60371;BME280;48550;40.588;49.684;2023-03-14T12:09:06;102485.69;;;8.14;100.00
60371;BME280;48550;40.588;49.684;2023-03-14T12:14:35;102482.84;;;8.16;100.00
60371;BME280;48550;40.588;49.684;2023-03-14T12:17:26;102495.38;;;8.23;100.00
60371;BME280;48550;40.588;49.684;2023-03-14T12:20:05;102496.41;;;8.06;100.00
60371;BME280;48550;40.588;49.684;2023-03-14T12:22:36;102491.06;;;8.06;100.00
60371;BME280;48550;40.588;49.684;2023-03-14T12:25:24;102496.56;;;8.21;100.00
60371;BME280;48550;40.588;49.684;2023-03-14T12:30:31;102498.94;;;8.00;100.00
60371;BME280;48550;40.588;49.684;2023-03-14T12:35:41;102501.09;;;8.04;100.00
60371;BME280;48550;40.588;49.684;2023-03-14T12:41:25;102497.53;;;7.73;100.00
60371;BME280;48550;40.588;49.684;2023-03-14T12:43:53;102491.00;;;7.75;100.00
60371;BME280;48550;40.588;49.684;2023-03-14T12:46:22;102497.81;;;7.86;100.00
60371;BME280;48550;40.588;49.684;2023-03-14T12:51:38;102491.00;;;7.75;100.00
60371;BME280;48550;40.588;49.684;2023-03-14T12:57:25;102478.50;;;7.59;100.00
60371;BME280;48550;40.588;49.684;2023-03-14T13:00:02;102484.34;;;7.63;100.00
60371;BME280;48550;40.588;49.684;2023-03-14T13:02:42;102469.34;;;7.54;100.00
60371;BME280;48550;40.588;49.684;2023-03-14T13:05:13;102463.16;;;7.45;100.00
60371;BME280;48550;40.588;49.684;2023-03-14T13:12:43;102478.09;;;7.87;100.00
60371;BME280;48550;40.588;49.684;2023-03-14T13:17:42;102475.66;;;7.69;100.00
60371;BME280;48550;40.588;49.684;2023-03-14T13:20:22;102478.09;;;7.87;100.00
60371;BME280;48550;40.588;49.684;2023-03-14T13:22:49;102482.97;;;7.83;100.00
60371;BME280;48550;40.588;49.684;2023-03-14T13:25:15;102475.25;;;7.88;100.00
60371;BME280;48550;40.588;49.684;2023-03-14T13:27:44;102475.94;;;7.82;100.00
60371;BME280;48550;40.588;49.684;2023-03-14T13:30:20;102487.63;;;7.81;100.00
60371;BME280;48550;40.588;49.684;2023-03-14T13:32:47;102489.31;;;7.82;100.00
60371;BME280;48550;40.588;49.684;2023-03-14T13:35:27;102489.97;;;7.84;100.00
60371;BME280;48550;40.588;49.684;2023-03-14T13:38:01;102500.47;;;7.94;100.00
60371;BME280;48550;40.588;49.684;2023-03-14T13:40:34;102502.81;;;7.89;100.00